createdAt,value
2023-10-09T00:00:19.383Z,102415.25
2023-10-09T00:02:46.068Z,102403.88
2023-10-09T00:05:24.508Z,102356.44
2023-10-09T00:07:57.131Z,102407.19
2023-10-09T00:10:25.345Z,102396.63
2023-10-09T00:12:52.038Z,102393.13
2023-10-09T00:15:19.224Z,102392.06
2023-10-09T00:17:48.837Z,102400.03
2023-10-09T00:20:31.504Z,102413.09
2023-10-09T00:22:59.273Z,102396.41
2023-10-09T00:25:31.549Z,102326.38
2023-10-09T00:28:00.878Z,102386.28
2023-10-09T00:30:31.441Z,102409.34
2023-10-09T00:33:08.584Z,102404.94
2023-10-09T00:35:55.337Z,102400.47
2023-10-09T00:38:22.230Z,102402.09
2023-10-09T00:40:57.520Z,102389.84
2023-10-09T00:43:31.083Z,102388.06
2023-10-09T00:46:13.326Z,102379.13
2023-10-09T00:48:41.924Z,102385.34
2023-10-09T00:51:27.325Z,102387.03
2023-10-09T00:54:08.485Z,102294.69
2023-10-09T00:56:45.138Z,102391.22
2023-10-09T00:59:17.362Z,102352.88
2023-10-09T01:02:05.488Z,102382.41
2023-10-09T01:04:38.254Z,102383.09
2023-10-09T01:07:16.943Z,102384.75
2023-10-09T01:09:52.366Z,102360.00
2023-10-09T01:12:19.257Z,102380.31
2023-10-09T01:14:47.353Z,102380.16
2023-10-09T01:17:23.707Z,102377.50
2023-10-09T01:19:56.310Z,102308.66
2023-10-09T01:22:23.242Z,102375.66
2023-10-09T01:24:56.569Z,102374.69
2023-10-09T01:27:27.022Z,102366.56
2023-10-09T01:29:58.250Z,102370.22
2023-10-09T01:32:28.017Z,102371.88
2023-10-09T01:34:55.449Z,102378.84
2023-10-09T01:37:40.508Z,102371.81
2023-10-09T01:40:26.437Z,102360.34
2023-10-09T01:42:53.434Z,102363.75
2023-10-09T01:45:22.461Z,102355.31
2023-10-09T01:47:56.210Z,102368.69
2023-10-09T01:50:26.101Z,102351.63
2023-10-09T01:52:52.961Z,102380.16
2023-10-09T01:55:36.259Z,102381.00
2023-10-09T01:58:07.346Z,102382.66
2023-10-09T02:00:36.956Z,102371.09
2023-10-09T02:03:07.145Z,102379.91
2023-10-09T02:05:37.084Z,102376.41
2023-10-09T02:08:05.279Z,102383.38
2023-10-09T02:10:34.231Z,102376.31
2023-10-09T02:13:11.215Z,102375.38
2023-10-09T02:15:42.861Z,102345.16
2023-10-09T02:18:38.473Z,102309.16
2023-10-09T02:21:08.115Z,102372.56
2023-10-09T02:23:45.528Z,102372.50
2023-10-09T02:26:47.564Z,102370.72
2023-10-09T02:29:14.144Z,102350.31
2023-10-09T02:31:52.925Z,102361.81
2023-10-09T02:34:23.472Z,102367.00
2023-10-09T02:36:51.009Z,102353.88
2023-10-09T02:39:27.763Z,102359.09
2023-10-09T02:42:24.603Z,102340.44
2023-10-09T02:44:54.514Z,102355.47
2023-10-09T02:47:25.494Z,102345.66
2023-10-09T02:50:01.688Z,102285.72
2023-10-09T02:52:35.440Z,102351.69
2023-10-09T02:55:09.255Z,102361.13
2023-10-09T02:57:38.731Z,102298.59
2023-10-09T03:00:10.316Z,102345.81
2023-10-09T03:02:41.450Z,102345.84
2023-10-09T03:05:13.391Z,102354.72
2023-10-09T03:07:40.756Z,102346.75
2023-10-09T03:10:10.794Z,102333.28
2023-10-09T03:12:40.478Z,102342.78
2023-10-09T03:15:09.983Z,102346.41
2023-10-09T03:17:36.926Z,102348.91
2023-10-09T03:20:15.053Z,102337.28
2023-10-09T03:22:45.973Z,102338.94
2023-10-09T03:25:15.574Z,102349.47
2023-10-09T03:27:48.797Z,102353.69
2023-10-09T03:30:25.138Z,102282.19
2023-10-09T03:32:53.428Z,102341.38
2023-10-09T03:35:27.468Z,102345.59
2023-10-09T03:37:58.393Z,102338.47
2023-10-09T03:40:28.887Z,102343.75
2023-10-09T03:43:02.438Z,102333.94
2023-10-09T03:45:32.864Z,102321.56
2023-10-09T03:48:22.263Z,102320.72
2023-10-09T03:50:50.050Z,102324.16
2023-10-09T03:53:17.408Z,102220.06
2023-10-09T03:55:44.065Z,102327.53
2023-10-09T03:58:13.599Z,102329.19
2023-10-09T04:00:47.383Z,102330.03
2023-10-09T04:03:15.692Z,102330.75
2023-10-09T04:05:44.315Z,102320.22
2023-10-09T04:08:22.271Z,102326.22
2023-10-09T04:10:58.545Z,102324.44
2023-10-09T04:13:33.964Z,102328.69
2023-10-09T04:16:33.093Z,102325.97
2023-10-09T04:19:00.691Z,102327.44
2023-10-09T04:21:37.487Z,102325.63
2023-10-09T04:24:30.368Z,102291.84
2023-10-09T04:27:00.089Z,102258.22
2023-10-09T04:29:29.397Z,102326.41
2023-10-09T04:32:01.887Z,102316.75
2023-10-09T04:34:28.996Z,102319.34
2023-10-09T04:37:16.507Z,102312.31
2023-10-09T04:39:49.008Z,102226.88
2023-10-09T04:42:25.635Z,102319.03
2023-10-09T04:45:21.218Z,102305.63
2023-10-09T04:47:50.827Z,102316.41
2023-10-09T04:50:32.956Z,102303.81
2023-10-09T04:53:19.505Z,102317.25
2023-10-09T04:55:55.328Z,102316.34
2023-10-09T04:58:26.976Z,102305.53
2023-10-09T05:00:59.536Z,102322.34
2023-10-09T05:03:29.548Z,102316.34
2023-10-09T05:06:00.254Z,102201.94
2023-10-09T05:08:30.213Z,102283.25
2023-10-09T05:11:00.703Z,102303.00
2023-10-09T05:13:41.123Z,102317.25
2023-10-09T05:16:41.666Z,102303.97
2023-10-09T05:19:28.293Z,102323.44
2023-10-09T05:21:59.488Z,102318.22
2023-10-09T05:24:28.155Z,102326.19
2023-10-09T05:26:54.888Z,102305.63
2023-10-09T05:29:29.874Z,102327.19
2023-10-09T05:32:14.644Z,102323.78
2023-10-09T05:34:59.989Z,102323.88
2023-10-09T05:37:35.759Z,102330.06
2023-10-09T05:40:19.726Z,102336.34
2023-10-09T05:42:58.992Z,102333.81
2023-10-09T05:45:46.001Z,102338.19
2023-10-09T05:48:18.679Z,102315.25
2023-10-09T05:51:04.339Z,102311.09
2023-10-09T05:53:45.908Z,102313.78
2023-10-09T05:56:33.397Z,102318.25
2023-10-09T05:59:23.379Z,102330.69
2023-10-09T06:02:15.659Z,102325.34
2023-10-09T06:04:55.993Z,102329.00
2023-10-09T06:07:42.290Z,102330.75
2023-10-09T06:10:29.350Z,102332.75
2023-10-09T06:13:05.136Z,102310.69
2023-10-09T06:15:47.083Z,102271.91
2023-10-09T06:18:35.172Z,102329.47
2023-10-09T06:21:20.556Z,102344.38
2023-10-09T06:24:05.748Z,102332.91
2023-10-09T06:26:34.339Z,102340.97
2023-10-09T06:29:31.908Z,102312.53
2023-10-09T06:31:59.091Z,102325.88
2023-10-09T06:34:36.662Z,102347.25
2023-10-09T06:37:07.949Z,102331.31
2023-10-09T06:39:51.999Z,102327.19
2023-10-09T06:42:41.950Z,102341.47
2023-10-09T06:45:15.750Z,102331.09
2023-10-09T06:47:57.378Z,102323.22
2023-10-09T06:50:28.124Z,102331.41
2023-10-09T06:52:58.716Z,102322.03
2023-10-09T06:55:37.531Z,102314.41
2023-10-09T06:58:11.201Z,102323.31
2023-10-09T07:01:02.415Z,102334.06
2023-10-09T07:03:35.319Z,102331.31
2023-10-09T07:06:25.327Z,102347.72
2023-10-09T07:09:17.290Z,102343.41
2023-10-09T07:11:49.396Z,102356.00
2023-10-09T07:14:34.182Z,102366.00
2023-10-09T07:17:17.718Z,102361.88
2023-10-09T07:19:47.306Z,102364.88
2023-10-09T07:22:24.661Z,102354.38
2023-10-09T07:25:13.463Z,102364.59
2023-10-09T07:27:50.990Z,102374.56
2023-10-09T07:30:33.247Z,102370.50
2023-10-09T07:33:07.621Z,102357.69
2023-10-09T07:35:43.642Z,102360.78
2023-10-09T07:38:21.106Z,102361.13
2023-10-09T07:41:18.008Z,102368.47
2023-10-09T07:43:44.657Z,102366.94
2023-10-09T07:46:34.908Z,102322.47
2023-10-09T07:49:10.235Z,102370.97
2023-10-09T07:51:44.955Z,102378.25
2023-10-09T07:54:16.049Z,102369.56
2023-10-09T07:56:47.719Z,102367.31
2023-10-09T07:59:19.835Z,102308.44
2023-10-09T08:01:53.860Z,102323.28
2023-10-09T08:04:40.909Z,102310.84
2023-10-09T08:08:02.083Z,102329.53
2023-10-09T08:10:20.971Z,102385.34
2023-10-09T08:12:51.041Z,102376.03
2023-10-09T08:15:21.783Z,102378.81
2023-10-09T08:18:00.618Z,102407.38
2023-10-09T08:20:37.334Z,102404.19
2023-10-09T08:23:06.289Z,102385.84
2023-10-09T08:25:51.774Z,102384.53
2023-10-09T08:28:18.428Z,102371.88
2023-10-09T08:30:57.168Z,102296.41
2023-10-09T08:36:03.306Z,102296.97
2023-10-09T08:38:34.517Z,102418.56
2023-10-09T08:41:18.886Z,102417.00
2023-10-09T08:43:53.595Z,102407.44
2023-10-09T08:46:30.415Z,102415.66
2023-10-09T08:48:59.511Z,102401.41
2023-10-09T08:51:27.797Z,102423.09
2023-10-09T08:53:55.256Z,102411.75
2023-10-09T08:56:25.717Z,102408.63
2023-10-09T08:58:53.160Z,102408.94
2023-10-09T09:01:22.840Z,102389.66
2023-10-09T09:03:53.081Z,102419.22
2023-10-09T09:06:20.473Z,102437.06
2023-10-09T09:08:56.180Z,102414.06
2023-10-09T09:11:26.419Z,102399.19
2023-10-09T09:14:07.257Z,102375.97
2023-10-09T09:16:37.903Z,102435.94
2023-10-09T09:19:11.551Z,102416.81
2023-10-09T09:22:00.322Z,102406.44
2023-10-09T09:24:27.052Z,102410.25
2023-10-09T09:27:01.943Z,102400.91
2023-10-09T09:29:40.708Z,102399.59
2023-10-09T09:32:21.955Z,102397.25
2023-10-09T09:34:51.366Z,102388.91
2023-10-09T09:37:21.966Z,102397.19
2023-10-09T09:39:56.084Z,102380.66
2023-10-09T09:42:28.049Z,102385.50
2023-10-09T09:44:57.218Z,102330.56
2023-10-09T09:47:28.660Z,102354.03
2023-10-09T09:50:06.395Z,102417.16
2023-10-09T09:52:42.144Z,102413.63
2023-10-09T09:55:23.712Z,102410.22
2023-10-09T09:57:53.808Z,102413.84
2023-10-09T10:00:44.169Z,102427.16
2023-10-09T10:03:20.853Z,102434.38
2023-10-09T10:05:49.972Z,102441.44
2023-10-09T10:08:32.334Z,102425.66
2023-10-09T10:11:06.022Z,102416.16
2023-10-09T10:13:42.302Z,102389.88
2023-10-09T10:16:19.322Z,102390.06
2023-10-09T10:19:22.977Z,102393.81
2023-10-09T10:21:51.177Z,102387.78
2023-10-09T10:24:30.021Z,102396.69
2023-10-09T10:27:19.312Z,102402.97
2023-10-09T10:29:51.488Z,102396.75
2023-10-09T10:32:21.878Z,102408.38
2023-10-09T10:35:07.984Z,102411.13
2023-10-09T10:37:39.290Z,102406.81
2023-10-09T10:40:16.685Z,102413.03
2023-10-09T10:43:10.544Z,102406.91
2023-10-09T10:45:39.620Z,102394.69
2023-10-09T10:48:11.053Z,102400.13
2023-10-09T10:50:38.936Z,102394.09
2023-10-09T10:53:23.842Z,102372.16
2023-10-09T10:56:29.456Z,102361.69
2023-10-09T10:59:05.656Z,102371.63
2023-10-09T11:01:51.770Z,102289.22
2023-10-09T11:04:31.549Z,102366.59
2023-10-09T11:07:10.398Z,102362.22
2023-10-09T11:10:01.044Z,102377.31
2023-10-09T11:12:39.504Z,102364.06
2023-10-09T11:15:19.891Z,102382.66
2023-10-09T11:18:06.408Z,102383.47
2023-10-09T11:20:35.965Z,102371.06
2023-10-09T11:23:12.041Z,102370.25
2023-10-09T11:25:51.402Z,102365.00
2023-10-09T11:28:32.557Z,102363.25
2023-10-09T11:31:12.804Z,102351.72
2023-10-09T11:33:50.142Z,102339.34
2023-10-09T11:36:17.633Z,102363.34
2023-10-09T11:38:53.264Z,102366.94
2023-10-09T11:41:23.847Z,102280.81
2023-10-09T11:43:55.944Z,102352.69
2023-10-09T11:46:49.823Z,102373.94
2023-10-09T11:49:16.906Z,102380.09
2023-10-09T11:52:03.759Z,102367.59
2023-10-09T11:54:32.765Z,102377.31
2023-10-09T11:57:02.202Z,102371.91
2023-10-09T11:59:39.161Z,102363.03
2023-10-09T12:02:18.149Z,102360.38
2023-10-09T12:04:47.090Z,102361.38
2023-10-09T12:07:14.282Z,102364.13
2023-10-09T12:09:41.298Z,102340.28
2023-10-09T12:12:12.402Z,102341.25
2023-10-09T12:14:39.132Z,102338.63
2023-10-09T12:17:07.088Z,102324.44
2023-10-09T12:19:40.111Z,102326.28
2023-10-09T12:22:12.196Z,102306.78
2023-10-09T12:24:44.547Z,102328.06
2023-10-09T12:27:13.522Z,102303.28
2023-10-09T12:29:46.095Z,102303.31
2023-10-09T12:32:15.269Z,102303.28
2023-10-09T12:34:43.679Z,102262.50
2023-10-09T12:37:10.419Z,102283.81
2023-10-09T12:39:41.627Z,102236.78
2023-10-09T12:42:09.767Z,102279.31
2023-10-09T12:44:40.419Z,102281.06
2023-10-09T12:47:08.230Z,102276.63
2023-10-09T12:49:35.030Z,102273.97
2023-10-09T12:52:01.790Z,102273.94
2023-10-09T12:54:28.865Z,102255.28
2023-10-09T12:56:56.557Z,102220.63
2023-10-09T12:59:25.398Z,102264.13
2023-10-09T13:01:59.177Z,102264.91
2023-10-09T13:04:33.228Z,102277.25
2023-10-09T13:07:05.550Z,102275.44
2023-10-09T13:09:44.467Z,102267.41
2023-10-09T13:12:19.593Z,102270.91
2023-10-09T13:14:51.068Z,102255.81
2023-10-09T13:17:18.160Z,102259.31
2023-10-09T13:19:45.428Z,102260.19
2023-10-09T13:22:14.901Z,102258.38
2023-10-09T13:24:42.848Z,102254.81
2023-10-09T13:27:11.139Z,102252.13
2023-10-09T13:29:41.508Z,102243.19
2023-10-09T13:32:14.942Z,102197.91
2023-10-09T13:34:50.159Z,102258.22
2023-10-09T13:37:23.470Z,102243.19
2023-10-09T13:39:57.139Z,102242.28
2023-10-09T13:42:27.144Z,102176.63
2023-10-09T13:44:57.367Z,102255.50
2023-10-09T13:47:30.623Z,102239.53
2023-10-09T13:49:58.803Z,102212.91
2023-10-09T13:52:25.706Z,102224.44
2023-10-09T13:54:52.487Z,102252.78
2023-10-09T13:57:23.767Z,102251.91
2023-10-09T13:59:50.796Z,102208.41
2023-10-09T14:02:22.635Z,102230.59
2023-10-09T14:04:49.669Z,102233.34
2023-10-09T14:07:21.944Z,102233.34
2023-10-09T14:10:08.686Z,102253.78
2023-10-09T14:12:41.059Z,102249.38
2023-10-09T14:15:12.381Z,102245.81
2023-10-09T14:17:44.367Z,102198.81
2023-10-09T14:20:30.092Z,102193.47
2023-10-09T14:22:57.291Z,102204.13
2023-10-09T14:25:31.213Z,102244.97
2023-10-09T14:27:59.523Z,102238.78
2023-10-09T14:30:43.046Z,102152.69
2023-10-09T14:33:24.091Z,102241.41
2023-10-09T14:35:54.118Z,102240.53
2023-10-09T14:38:27.960Z,102234.31
2023-10-09T14:41:01.255Z,102137.59
2023-10-09T14:43:34.990Z,102110.94
2023-10-09T14:46:02.225Z,102204.13
2023-10-09T14:48:30.334Z,102217.44
2023-10-09T14:51:05.947Z,102142.94
2023-10-09T14:53:35.691Z,102093.16
2023-10-09T14:56:04.664Z,102189.91
2023-10-09T14:58:34.039Z,102201.44
2023-10-09T15:01:12.220Z,102163.22
2023-10-09T15:03:41.612Z,102211.16
2023-10-09T15:06:11.744Z,102214.72
2023-10-09T15:08:39.248Z,102147.31
2023-10-09T15:11:08.582Z,102212.09
2023-10-09T15:13:40.752Z,102130.47
2023-10-09T15:16:07.869Z,102188.22
2023-10-09T15:18:35.043Z,102189.91
2023-10-09T15:21:02.062Z,102201.50
2023-10-09T15:23:28.818Z,102197.91
2023-10-09T15:25:57.947Z,102198.75
2023-10-09T15:28:25.031Z,102192.50
2023-10-09T15:30:51.933Z,102204.00
2023-10-09T15:33:20.050Z,102204.00
2023-10-09T15:35:53.774Z,102196.91
2023-10-09T15:38:23.151Z,102204.84
2023-10-09T15:40:55.405Z,102210.09
2023-10-09T15:43:26.368Z,102207.44
2023-10-09T15:45:53.135Z,102213.59
2023-10-09T15:48:23.029Z,102206.47
2023-10-09T15:50:50.144Z,102210.88
2023-10-09T15:53:19.410Z,102194.88
2023-10-09T15:55:53.265Z,102215.25
2023-10-09T15:58:20.150Z,102210.78
2023-10-09T16:00:46.984Z,102200.09
2023-10-09T16:03:15.278Z,102202.69
2023-10-09T16:05:42.292Z,102211.50
2023-10-09T16:08:09.562Z,102216.72
2023-10-09T16:10:37.236Z,102205.16
2023-10-09T16:13:05.439Z,102216.63
2023-10-09T16:15:33.708Z,102206.78
2023-10-09T16:18:07.562Z,102218.25
2023-10-09T16:20:34.523Z,102184.47
2023-10-09T16:23:05.521Z,102211.94
2023-10-09T16:25:35.306Z,102206.56
2023-10-09T16:28:03.806Z,102212.75
2023-10-09T16:30:30.817Z,102226.78
2023-10-09T16:33:01.847Z,102191.31
2023-10-09T16:35:28.788Z,102168.91
2023-10-09T16:37:59.221Z,102213.38
2023-10-09T16:40:27.734Z,102158.19
2023-10-09T16:42:54.922Z,102202.47
2023-10-09T16:45:21.971Z,102229.91
2023-10-09T16:48:00.322Z,102230.69
2023-10-09T16:50:29.564Z,102229.72
2023-10-09T16:52:56.619Z,102213.53
2023-10-09T16:55:25.903Z,102199.31
2023-10-09T16:57:57.118Z,102230.34
2023-10-09T17:00:30.123Z,102161.00
2023-10-09T17:03:00.298Z,102171.63
2023-10-09T17:05:37.315Z,102215.16
2023-10-09T17:08:04.724Z,102212.31
2023-10-09T17:10:36.336Z,102224.66
2023-10-09T17:13:08.240Z,102225.47
2023-10-09T17:15:38.469Z,102227.13
2023-10-09T17:18:08.036Z,102219.88
2023-10-09T17:20:41.959Z,102220.72
2023-10-09T17:23:13.442Z,102214.31
2023-10-09T17:25:45.787Z,102237.22
2023-10-09T17:28:21.026Z,102237.09
2023-10-09T17:30:51.068Z,102236.97
2023-10-09T17:33:20.806Z,102184.44
2023-10-09T17:35:50.922Z,102227.06
2023-10-09T17:38:19.779Z,102213.63
2023-10-09T17:40:52.849Z,102230.34
2023-10-09T17:43:23.177Z,102206.22
2023-10-09T17:45:54.017Z,102184.72
2023-10-09T17:48:26.598Z,102221.09
2023-10-09T17:50:57.607Z,102183.53
2023-10-09T17:53:24.362Z,102239.56
2023-10-09T17:55:57.314Z,102159.34
2023-10-09T17:58:27.620Z,102238.44
2023-10-09T18:00:59.860Z,102235.72
2023-10-09T18:03:31.283Z,102233.84
2023-10-09T18:06:01.094Z,102226.63
2023-10-09T18:08:30.293Z,102235.34
2023-10-09T18:11:07.124Z,102216.59
2023-10-09T18:13:37.017Z,102242.16
2023-10-09T18:16:13.383Z,102178.75
2023-10-09T18:18:41.284Z,102229.41
2023-10-09T18:21:11.475Z,102255.84
2023-10-09T18:23:45.753Z,102247.84
2023-10-09T18:26:16.604Z,102233.50
2023-10-09T18:28:46.157Z,102242.31
2023-10-09T18:31:19.746Z,102227.06
2023-10-09T18:33:54.168Z,102241.16
2023-10-09T18:36:23.970Z,102241.06
2023-10-09T18:38:53.493Z,102233.97
2023-10-09T18:41:20.623Z,102215.13
2023-10-09T18:43:49.455Z,102209.72
2023-10-09T18:46:16.778Z,102237.13
2023-10-09T18:48:46.896Z,102222.88
2023-10-09T18:51:15.777Z,102231.63
2023-10-09T18:53:42.955Z,102241.16
2023-10-09T18:56:15.907Z,102233.13
2023-10-09T18:58:43.892Z,102228.47
2023-10-09T19:01:19.686Z,102223.94
2023-10-09T19:03:51.610Z,102237.25
2023-10-09T19:06:19.556Z,102157.88
2023-10-09T19:08:49.356Z,102229.09
2023-10-09T19:11:22.327Z,102233.44
2023-10-09T19:13:49.379Z,102209.13
2023-10-09T19:16:18.471Z,102238.47
2023-10-09T19:18:46.126Z,102210.72
2023-10-09T19:21:19.904Z,102211.63
2023-10-09T19:23:48.878Z,102221.38
2023-10-09T19:26:16.196Z,102207.00
2023-10-09T19:28:49.618Z,102223.91
2023-10-09T19:31:21.551Z,102172.16
2023-10-09T19:33:49.267Z,102237.94
2023-10-09T19:36:16.025Z,102229.06
2023-10-09T19:38:55.086Z,102236.00
2023-10-09T19:41:24.424Z,102169.06
2023-10-09T19:43:57.563Z,102160.88
2023-10-09T19:46:29.585Z,102215.31
2023-10-09T19:48:58.999Z,102204.38
2023-10-09T19:51:25.718Z,102242.69
2023-10-09T19:53:53.978Z,102247.91
2023-10-09T19:56:23.520Z,102234.47
2023-10-09T19:58:55.879Z,102248.66
2023-10-09T20:01:27.352Z,102251.25
2023-10-09T20:03:54.303Z,102224.50
2023-10-09T20:06:21.067Z,102248.50
2023-10-09T20:08:49.113Z,102247.63
2023-10-09T20:11:16.209Z,102252.81
2023-10-09T20:13:44.487Z,102257.16
2023-10-09T20:16:13.772Z,102225.03
2023-10-09T20:18:47.185Z,102256.22
2023-10-09T20:21:14.233Z,102245.34
2023-10-09T20:23:44.671Z,102271.13
2023-10-09T20:26:17.317Z,102249.00
2023-10-09T20:28:44.966Z,102199.84
2023-10-09T20:31:14.076Z,102259.63
2023-10-09T20:33:43.395Z,102192.66
2023-10-09T20:36:18.864Z,102260.28
2023-10-09T20:38:50.200Z,102252.19
2023-10-09T20:41:17.706Z,102256.69
2023-10-09T20:43:47.006Z,102181.81
2023-10-09T20:46:17.437Z,102237.94
2023-10-09T20:48:47.778Z,102250.34
2023-10-09T20:51:18.011Z,102247.69
2023-10-09T20:53:45.378Z,102258.16
2023-10-09T20:56:14.688Z,102255.41
2023-10-09T20:58:44.780Z,102258.03
2023-10-09T21:01:21.155Z,102264.97
2023-10-09T21:03:52.459Z,102262.25
2023-10-09T21:06:25.104Z,102208.72
2023-10-09T21:08:52.099Z,102241.66
2023-10-09T21:11:22.746Z,102253.25
2023-10-09T21:13:49.689Z,102250.53
2023-10-09T21:16:17.202Z,102164.84
2023-10-09T21:18:48.381Z,102255.59
2023-10-09T21:21:16.905Z,102213.75
2023-10-09T21:23:46.674Z,102231.44
2023-10-09T21:26:19.252Z,102235.91
2023-10-09T21:28:47.880Z,102176.13
2023-10-09T21:31:20.493Z,102249.06
2023-10-09T21:33:53.546Z,102249.81
2023-10-09T21:36:20.979Z,102229.28
2023-10-09T21:38:48.287Z,102245.28
2023-10-09T21:41:22.774Z,102245.03
2023-10-09T21:43:54.883Z,102239.00
2023-10-09T21:46:26.496Z,102245.91
2023-10-09T21:48:55.968Z,102247.59
2023-10-09T21:51:24.929Z,102249.28
2023-10-09T21:53:51.811Z,102221.72
2023-10-09T21:56:21.317Z,102246.53
2023-10-09T21:58:48.374Z,102213.56
2023-10-09T22:01:20.664Z,102200.25
2023-10-09T22:03:49.991Z,102238.41
2023-10-09T22:06:16.866Z,102211.78
2023-10-09T22:08:46.049Z,102226.78
2023-10-09T22:11:13.030Z,102234.03
2023-10-09T22:13:40.127Z,102224.34
2023-10-09T22:16:09.610Z,102230.53
2023-10-09T22:18:41.576Z,102223.53
2023-10-09T22:21:12.213Z,102204.91
2023-10-09T22:23:46.848Z,102206.69
2023-10-09T22:26:21.393Z,102219.22
2023-10-09T22:28:48.285Z,102212.09
2023-10-09T22:31:17.070Z,102220.97
2023-10-09T22:33:50.680Z,102223.59
2023-10-09T22:36:42.255Z,102220.03
2023-10-09T22:39:34.036Z,102193.09
2023-10-09T22:42:04.758Z,102216.09
2023-10-09T22:44:39.313Z,102220.53
2023-10-09T22:47:11.266Z,102217.81
2023-10-09T22:49:38.775Z,102217.63
2023-10-09T22:52:16.025Z,102213.34
2023-10-09T22:54:50.256Z,102205.44
2023-10-09T22:57:17.900Z,102211.47
2023-10-09T22:59:51.562Z,102195.38
2023-10-09T23:02:44.416Z,102212.31
2023-10-09T23:05:14.202Z,102125.72
2023-10-09T23:07:42.913Z,102195.38
2023-10-09T23:10:16.399Z,102162.28
2023-10-09T23:12:50.042Z,102195.09
2023-10-09T23:15:36.751Z,102220.88
2023-10-09T23:18:22.165Z,102207.72
2023-10-09T23:21:11.241Z,102211.16
2023-10-09T23:23:42.493Z,102212.78
2023-10-09T23:26:11.185Z,102203.97
2023-10-09T23:28:39.255Z,102194.84
2023-10-09T23:31:24.953Z,102200.31
2023-10-09T23:33:58.266Z,102200.22
2023-10-09T23:36:31.145Z,102196.53
2023-10-09T23:39:11.217Z,102181.22
2023-10-09T23:41:38.893Z,102148.25
2023-10-09T23:44:08.788Z,102195.41
2023-10-09T23:46:39.735Z,102108.81
2023-10-09T23:49:08.875Z,102190.75
2023-10-09T23:51:40.307Z,102189.81
2023-10-09T23:54:13.047Z,102187.00
2023-10-09T23:57:00.975Z,102182.50
2023-10-09T23:59:51.613Z,102184.13
